Fannett, Pennsylvania
Current Conditions -  °F | °C
As of 1:10 PM on Tuesday 21 Oct 2014 (Local Time) from KAOO Reporting Station
Overcast Overcast  
Wind Chill: 57°   Ceiling: 4800
Heat Index: 57°   Visibility: 10mi
Dew Point: 48°   Wind: 5mph
Humidity: 72%   Direction: 300°WNW
Pressure: 29.85"   Gusts: NA
Location:  40.2376°N, 77.7083°W
Report Text: KAOO 211710Z AUTO 30004KT 10SM FEW020 SCT025 OVC048 14/09 A2985 RMK AO2 T01390089
Loading
Personal Weather Stations






























Interactive Weather Map
Tropical Storm Tracking
New forecast layout! Learn more

10-Day Weather Forecast

Advertisements
Track Severe Weather on mobile